Time;durP1;ratioP1;P1;durP2;ratioP2;P2;SDS_P1;SDS_P2;PMS_P1;PMS_P2;Temp;Humidity;BMP_temperature;BMP_pressure;BME280_temperature;BME280_humidity;BME280_pressure;Samples;Min_cycle;Max_cycle;Signal;HPM_P1;HPM_P2
2021/06/11 05:06:25;;;;;;;5.32;3.17;;;;;;;;;;4986971;23;20051;-72
2021/06/11 05:08:51;;;;;;;4.25;2.83;;;;;;;;;;4919644;29;20039;-68
2021/06/11 05:11:18;;;;;;;4.35;2.88;;;;;;;;;;4935363;29;20115;-72
2021/06/11 05:13:44;;;;;;;5.88;3.20;;;;;;;;;;4934435;29;20856;-71
2021/06/11 05:16:10;;;;;;;4.43;2.40;;;;;;;;;;4953142;29;20110;-72
2021/06/11 05:18:36;;;;;;;3.45;2.42;;;;;;;;;;4948283;29;20034;-72
2021/06/11 05:21:03;;;;;;;4.88;1.95;;;;;;;;;;4946534;29;20107;-72
2021/06/11 05:23:29;;;;;;;4.55;2.60;;;;;;;;;;4946522;29;20034;-72
2021/06/11 05:25:55;;;;;;;6.22;2.72;;;;;;;;;;4947285;29;20280;-72
2021/06/11 05:28:22;;;;;;;4.72;2.08;;;;;;;;;;4946774;29;20483;-70
2021/06/11 05:30:51;;;;;;;3.53;2.40;;;;;;;;;;4952489;29;20038;-72
2021/06/11 05:33:18;;;;;;;6.00;2.63;;;;;;;;;;4954296;28;20081;-71
2021/06/11 05:35:44;;;;;;;6.05;2.80;;;;;;;;;;4954656;29;20495;-74
2021/06/11 05:38:12;;;;;;;4.75;2.33;;;;;;;;;;4954570;29;20130;-72
2021/06/11 05:40:39;;;;;;;5.70;2.55;;;;;;;;;;4933872;29;20130;-71
2021/06/11 05:43:06;;;;;;;4.22;2.60;;;;;;;;;;4950837;29;20774;-72
2021/06/11 05:45:32;;;;;;;3.80;2.40;;;;;;;;;;4953551;29;20019;-72
2021/06/11 05:47:58;;;;;;;6.10;2.90;;;;;;;;;;4952904;29;20085;-69
2021/06/11 05:50:26;;;;;;;5.72;3.03;;;;;;;;;;4950925;29;20085;-70
2021/06/11 05:52:52;;;;;;;5.10;3.28;;;;;;;;;;4953076;29;20031;-73
2021/06/11 05:55:19;;;;;;;8.38;3.80;;;;;;;;;;4953383;29;20165;-76
2021/06/11 05:57:45;;;;;;;5.40;3.70;;;;;;;;;;4950554;29;20027;-79
2021/06/11 06:00:11;;;;;;;7.10;4.35;;;;;;;;;;4953008;29;20034;-83
2021/06/11 06:02:37;;;;;;;6.22;4.68;;;;;;;;;;4935941;29;20023;-81
2021/06/11 06:05:04;;;;;;;8.60;4.78;;;;;;;;;;4949783;29;20039;-77
2021/06/11 06:07:30;;;;;;;8.82;5.45;;;;;;;;;;4942394;29;20438;-79
2021/06/11 06:09:57;;;;;;;7.70;5.90;;;;;;;;;;4944260;29;20067;-76
2021/06/11 06:12:23;;;;;;;8.07;5.60;;;;;;;;;;4941789;29;20050;-73
2021/06/11 06:14:49;;;;;;;8.90;5.90;;;;;;;;;;4941116;29;20032;-76
2021/06/11 06:17:15;;;;;;;8.40;6.38;;;;;;;;;;4942010;29;20036;-68
2021/06/11 06:19:43;;;;;;;9.77;6.50;;;;;;;;;;4943251;29;20027;-73
2021/06/11 06:22:09;;;;;;;9.55;6.00;;;;;;;;;;4944069;29;20072;-75
2021/06/11 06:24:35;;;;;;;8.85;6.18;;;;;;;;;;4942174;29;20024;-74
2021/06/11 06:27:01;;;;;;;11.43;5.80;;;;;;;;;;4943161;29;20054;-75
2021/06/11 06:29:27;;;;;;;7.53;5.85;;;;;;;;;;4943572;29;20019;-72
2021/06/11 06:31:54;;;;;;;6.95;5.47;;;;;;;;;;4950561;28;20027;-83
2021/06/11 06:34:20;;;;;;;6.65;5.53;;;;;;;;;;4945240;28;20038;-75
2021/06/11 06:36:46;;;;;;;9.07;6.50;;;;;;;;;;4947855;28;20053;-76
2021/06/11 06:39:12;;;;;;;8.75;5.60;;;;;;;;;;4944029;29;20074;-76
2021/06/11 06:41:38;;;;;;;7.97;5.88;;;;;;;;;;4943586;29;20031;-72
2021/06/11 06:44:05;;;;;;;6.72;4.93;;;;;;;;;;4938982;29;20030;-77
2021/06/11 06:46:32;;;;;;;8.70;5.80;;;;;;;;;;4944171;29;20031;-77
2021/06/11 06:48:59;;;;;;;7.47;5.50;;;;;;;;;;4937970;29;20488;-73
2021/06/11 06:51:26;;;;;;;6.22;5.13;;;;;;;;;;4917641;29;20087;-72
2021/06/11 06:53:55;;;;;;;10.40;5.70;;;;;;;;;;4940045;29;20035;-73
2021/06/11 06:56:24;;;;;;;8.27;6.68;;;;;;;;;;4943067;29;20356;-73
2021/06/11 06:58:50;;;;;;;9.25;6.50;;;;;;;;;;4941086;29;20024;-72
2021/06/11 07:01:16;;;;;;;8.57;5.50;;;;;;;;;;4941180;29;20035;-73
2021/06/11 07:03:42;;;;;;;7.18;5.28;;;;;;;;;;4942387;29;20023;-72
2021/06/11 07:06:08;;;;;;;10.38;5.68;;;;;;;;;;4941413;29;20083;-72
2021/06/11 07:08:37;;;;;;;8.10;5.47;;;;;;;;;;4940262;28;20054;-73
2021/06/11 07:11:04;;;;;;;6.50;4.93;;;;;;;;;;4940085;29;20062;-73
2021/06/11 07:13:32;;;;;;;7.43;5.18;;;;;;;;;;4941211;29;20925;-67
2021/06/11 07:15:58;;;;;;;7.00;4.78;;;;;;;;;;4942155;29;20023;-67
2021/06/11 07:18:24;;;;;;;12.77;5.50;;;;;;;;;;4939571;29;20037;-67
2021/06/11 07:20:50;;;;;;;13.40;5.63;;;;;;;;;;4942579;29;20032;-66
2021/06/11 07:23:16;;;;;;;10.52;6.07;;;;;;;;;;4942604;29;20024;-69
2021/06/11 07:25:43;;;;;;;7.03;6.10;;;;;;;;;;4941656;29;20027;-70
2021/06/11 07:28:09;;;;;;;8.00;6.43;;;;;;;;;;4939817;29;20062;-67
2021/06/11 07:30:38;;;;;;;9.38;6.60;;;;;;;;;;4938420;29;20055;-69
2021/06/11 07:33:05;;;;;;;10.95;6.80;;;;;;;;;;4942218;29;20352;-68
2021/06/11 07:35:31;;;;;;;6.07;5.22;;;;;;;;;;4947179;29;20037;-68
2021/06/11 07:37:57;;;;;;;8.00;5.63;;;;;;;;;;4945640;29;20031;-67
2021/06/11 07:40:23;;;;;;;9.85;6.20;;;;;;;;;;4938446;29;20039;-71
2021/06/11 07:42:49;;;;;;;9.18;7.35;;;;;;;;;;4952533;29;20055;-69
2021/06/11 07:45:15;;;;;;;10.25;8.25;;;;;;;;;;4952267;29;20082;-71
2021/06/11 07:47:41;;;;;;;9.93;7.57;;;;;;;;;;4952099;29;20043;-68
2021/06/11 07:50:08;;;;;;;11.25;7.10;;;;;;;;;;4952656;29;20031;-70
2021/06/11 07:52:37;;;;;;;10.38;7.90;;;;;;;;;;4934859;29;20019;-69
2021/06/11 07:55:08;;;;;;;10.73;7.00;;;;;;;;;;4952310;29;20480;-67
2021/06/11 07:57:34;;;;;;;9.30;6.03;;;;;;;;;;4951553;29;20094;-69
2021/06/11 08:00:01;;;;;;;10.10;6.28;;;;;;;;;;4937466;29;20114;-66
2021/06/11 08:02:27;;;;;;;8.73;6.00;;;;;;;;;;4933107;29;20032;-69
2021/06/11 08:04:53;;;;;;;8.27;5.50;;;;;;;;;;4935074;29;20028;-66
2021/06/11 08:07:19;;;;;;;6.32;5.20;;;;;;;;;;4932910;29;20036;-66
2021/06/11 08:09:45;;;;;;;8.43;5.75;;;;;;;;;;4948773;29;20024;-68
2021/06/11 08:12:11;;;;;;;9.93;6.28;;;;;;;;;;4940967;29;20043;-67
2021/06/11 08:14:37;;;;;;;10.13;7.03;;;;;;;;;;4949284;29;20162;-69
2021/06/11 08:17:04;;;;;;;8.32;6.50;;;;;;;;;;4951719;29;20035;-66
2021/06/11 08:19:30;;;;;;;9.07;5.18;;;;;;;;;;4952621;28;20494;-78
2021/06/11 08:21:56;;;;;;;7.80;6.57;;;;;;;;;;4955692;29;20049;-68
2021/06/11 08:24:22;;;;;;;8.07;6.18;;;;;;;;;;4956132;29;20357;-69
2021/06/11 08:26:48;;;;;;;10.43;6.50;;;;;;;;;;4955424;29;20628;-68
2021/06/11 08:29:14;;;;;;;10.07;5.80;;;;;;;;;;4955610;29;20364;-66
2021/06/11 08:31:41;;;;;;;11.52;5.78;;;;;;;;;;4955016;29;20117;-69
2021/06/11 08:34:07;;;;;;;8.27;6.43;;;;;;;;;;4955271;29;20121;-70
2021/06/11 08:36:33;;;;;;;10.38;6.93;;;;;;;;;;4955493;29;20035;-68
2021/06/11 08:38:59;;;;;;;10.88;6.85;;;;;;;;;;4954491;29;20027;-68
2021/06/11 08:41:25;;;;;;;8.10;6.55;;;;;;;;;;4955391;29;20130;-66
2021/06/11 08:43:52;;;;;;;8.80;6.78;;;;;;;;;;4955697;29;20066;-68
2021/06/11 08:46:21;;;;;;;7.88;5.90;;;;;;;;;;4954706;29;20035;-65
2021/06/11 08:48:47;;;;;;;9.38;6.03;;;;;;;;;;4949428;29;20589;-66
2021/06/11 08:51:13;;;;;;;9.77;6.50;;;;;;;;;;4954800;29;20041;-68
2021/06/11 08:53:40;;;;;;;6.95;5.57;;;;;;;;;;4955181;29;20532;-66
2021/06/11 08:56:06;;;;;;;8.95;6.28;;;;;;;;;;4955243;29;20394;-65
2021/06/11 08:58:33;;;;;;;11.20;6.65;;;;;;;;;;4954898;29;20031;-66
2021/06/11 09:00:59;;;;;;;9.90;6.80;;;;;;;;;;4954831;29;20457;-62
2021/06/11 09:03:27;;;;;;;10.18;6.70;;;;;;;;;;4955054;29;20368;-64
2021/06/11 09:05:56;;;;;;;11.93;6.72;;;;;;;;;;4954928;29;20110;-69
2021/06/11 09:08:23;;;;;;;8.73;6.38;;;;;;;;;;4955326;29;20368;-65
2021/06/11 09:10:51;;;;;;;8.88;6.30;;;;;;;;;;4955488;29;20027;-63
2021/06/11 09:13:24;;;;;;;8.43;6.13;;;;;;;;;;4955260;29;20019;-68
2021/06/11 09:15:51;;;;;;;8.80;6.00;;;;;;;;;;4955346;29;20031;-65
2021/06/11 09:18:24;;;;;;;14.48;6.60;;;;;;;;;;4954968;29;20034;-65
2021/06/11 09:20:50;;;;;;;14.75;7.20;;;;;;;;;;4954910;29;20035;-63
2021/06/11 09:23:18;;;;;;;11.98;6.35;;;;;;;;;;4955245;29;20228;-66
2021/06/11 09:25:47;;;;;;;29.33;8.32;;;;;;;;;;4955114;29;20187;-62
2021/06/11 09:28:23;;;;;;;11.00;5.63;;;;;;;;;;4961744;28;20038;-63
2021/06/11 09:30:49;;;;;;;16.42;7.20;;;;;;;;;;4972889;28;20050;-64
2021/06/11 09:33:17;;;;;;;8.35;5.72;;;;;;;;;;4973586;28;20102;-69
2021/06/11 09:35:47;;;;;;;26.90;8.68;;;;;;;;;;4951843;28;20035;-65
2021/06/11 09:38:21;;;;;;;9.60;6.00;;;;;;;;;;4954499;29;20372;-64
2021/06/11 09:41:02;;;;;;;21.05;7.78;;;;;;;;;;4954356;29;20063;-65
2021/06/11 09:43:29;;;;;;;10.52;5.93;;;;;;;;;;4954722;29;20063;-76
2021/06/11 09:46:09;;;;;;;22.15;7.20;;;;;;;;;;4954452;29;20091;-66
2021/06/11 09:48:40;;;;;;;15.68;7.20;;;;;;;;;;4953288;29;20031;-63
2021/06/11 09:51:15;;;;;;;21.45;7.60;;;;;;;;;;4953412;29;20031;-64
2021/06/11 09:53:41;;;;;;;21.58;7.53;;;;;;;;;;4953956;29;20487;-67
2021/06/11 09:56:18;;;;;;;12.48;6.07;;;;;;;;;;4937293;29;20038;-68
2021/06/11 09:58:44;;;;;;;11.35;6.57;;;;;;;;;;4938458;29;20379;-64
2021/06/11 10:01:11;;;;;;;9.95;7.00;;;;;;;;;;4934985;29;20102;-71
2021/06/11 10:03:38;;;;;;;21.63;7.85;;;;;;;;;;4935229;29;20067;-67
2021/06/11 10:06:06;;;;;;;18.98;8.23;;;;;;;;;;4934772;29;20195;-67
2021/06/11 10:08:33;;;;;;;12.88;8.10;;;;;;;;;;4935085;29;20019;-74
2021/06/11 10:11:01;;;;;;;15.30;7.13;;;;;;;;;;4934891;29;20028;-66
2021/06/11 10:13:27;;;;;;;9.13;7.78;;;;;;;;;;4934804;29;20063;-65
2021/06/11 10:15:55;;;;;;;10.60;7.80;;;;;;;;;;4933367;29;20493;-68
2021/06/11 10:18:21;;;;;;;13.57;8.15;;;;;;;;;;4934237;29;20028;-67
2021/06/11 10:20:47;;;;;;;14.90;8.10;;;;;;;;;;4934548;29;20035;-69
2021/06/11 10:23:15;;;;;;;9.23;7.35;;;;;;;;;;4934512;29;20027;-66
2021/06/11 10:25:44;;;;;;;65.55;16.83;;;;;;;;;;4934270;29;20353;-62
2021/06/11 10:28:16;;;;;;;34.25;11.52;;;;;;;;;;4933916;29;20504;-68
2021/06/11 10:30:43;;;;;;;54.72;14.48;;;;;;;;;;4934669;29;20035;-67
2021/06/11 10:33:09;;;;;;;63.25;16.88;;;;;;;;;;4947175;29;20050;-69
2021/06/11 10:35:42;;;;;;;46.28;12.93;;;;;;;;;;4952971;29;20031;-78
2021/06/11 10:38:27;;;;;;;25.48;8.02;;;;;;;;;;4953253;29;20038;-69
2021/06/11 10:40:55;;;;;;;17.67;7.93;;;;;;;;;;4952909;29;20050;-68
2021/06/11 10:43:21;;;;;;;14.70;7.22;;;;;;;;;;4946013;28;20808;-68
2021/06/11 10:45:49;;;;;;;14.43;6.18;;;;;;;;;;4941542;29;20090;-68
2021/06/11 10:48:16;;;;;;;12.68;6.40;;;;;;;;;;4942301;29;20031;-65
2021/06/11 10:50:42;;;;;;;10.95;5.63;;;;;;;;;;4943264;29;20027;-67
2021/06/11 10:53:12;;;;;;;16.52;5.78;;;;;;;;;;4941213;29;20035;-69
2021/06/11 10:55:45;;;;;;;8.77;5.45;;;;;;;;;;4942619;29;20378;-68
2021/06/11 10:58:11;;;;;;;7.30;5.25;;;;;;;;;;4941688;29;20031;-71
2021/06/11 11:00:41;;;;;;;10.45;6.38;;;;;;;;;;4941960;29;20307;-70
2021/06/11 11:03:09;;;;;;;14.30;5.95;;;;;;;;;;4936184;29;20024;-71
2021/06/11 11:05:39;;;;;;;17.02;6.70;;;;;;;;;;4933939;29;20114;-70
2021/06/11 11:08:06;;;;;;;14.30;7.20;;;;;;;;;;4934246;29;20502;-66
2021/06/11 11:10:33;;;;;;;14.77;8.35;;;;;;;;;;4934099;29;20034;-71
2021/06/11 11:13:00;;;;;;;13.85;8.90;;;;;;;;;;4947591;29;20067;-71
2021/06/11 11:15:33;;;;;;;16.17;7.53;;;;;;;;;;4952949;29;20102;-70
2021/06/11 11:17:59;;;;;;;17.45;9.75;;;;;;;;;;4952774;29;20059;-71
2021/06/11 11:20:34;;;;;;;14.52;9.45;;;;;;;;;;4953275;29;20038;-73
2021/06/11 11:23:01;;;;;;;12.63;7.72;;;;;;;;;;4945169;29;20039;-73
2021/06/11 11:25:27;;;;;;;10.77;8.63;;;;;;;;;;4949894;29;20027;-75
2021/06/11 11:27:55;;;;;;;13.52;9.45;;;;;;;;;;4946785;29;20142;-79
2021/06/11 11:30:24;;;;;;;14.60;8.77;;;;;;;;;;4941367;29;20024;-75
2021/06/11 11:32:50;;;;;;;13.95;8.85;;;;;;;;;;4941619;29;20019;-73
2021/06/11 11:35:18;;;;;;;16.63;8.93;;;;;;;;;;4943076;29;20042;-73
2021/06/11 11:37:45;;;;;;;10.98;7.47;;;;;;;;;;4943268;29;20487;-73
2021/06/11 11:40:11;;;;;;;11.75;7.45;;;;;;;;;;4941897;29;20031;-72
2021/06/11 11:42:38;;;;;;;10.93;7.72;;;;;;;;;;4945156;29;20027;-74
2021/06/11 11:45:05;;;;;;;8.80;7.32;;;;;;;;;;4941195;29;20055;-72
2021/06/11 11:47:31;;;;;;;10.93;7.57;;;;;;;;;;4943276;29;20038;-75
2021/06/11 11:49:57;;;;;;;12.35;7.60;;;;;;;;;;4942750;29;20031;-74
2021/06/11 11:52:23;;;;;;;8.35;7.38;;;;;;;;;;4946346;29;20035;-76
2021/06/11 11:54:49;;;;;;;11.77;7.97;;;;;;;;;;4951852;29;20027;-72
2021/06/11 11:57:15;;;;;;;11.32;7.75;;;;;;;;;;4952513;29;20039;-73
2021/06/11 11:59:41;;;;;;;12.68;8.38;;;;;;;;;;4934973;29;20432;-72
2021/06/11 12:02:08;;;;;;;12.00;8.23;;;;;;;;;;4952094;29;20130;-75
2021/06/11 12:04:34;;;;;;;11.38;8.20;;;;;;;;;;4952538;29;20493;-74
2021/06/11 12:07:01;;;;;;;9.73;6.97;;;;;;;;;;4952314;29;20089;-74
2021/06/11 12:09:27;;;;;;;14.75;8.48;;;;;;;;;;4935475;29;20031;-74
2021/06/11 12:11:53;;;;;;;12.05;8.52;;;;;;;;;;4952078;29;20398;-74
2021/06/11 12:14:19;;;;;;;15.25;8.20;;;;;;;;;;4952356;29;20035;-73
2021/06/11 12:16:45;;;;;;;13.40;8.40;;;;;;;;;;4952823;29;20118;-72
2021/06/11 12:19:11;;;;;;;13.18;7.65;;;;;;;;;;4952201;29;20059;-73
2021/06/11 12:21:38;;;;;;;14.70;7.60;;;;;;;;;;4952676;29;20035;-72
2021/06/11 12:24:04;;;;;;;13.90;8.13;;;;;;;;;;4952412;29;20035;-71
2021/06/11 12:26:30;;;;;;;10.57;6.97;;;;;;;;;;4952149;29;20031;-73
2021/06/11 12:28:56;;;;;;;14.10;8.00;;;;;;;;;;4952466;29;20035;-71
2021/06/11 12:31:23;;;;;;;11.00;7.25;;;;;;;;;;4952707;29;20064;-72
2021/06/11 12:33:49;;;;;;;10.55;8.02;;;;;;;;;;4951955;29;20028;-71
2021/06/11 12:36:15;;;;;;;9.27;7.47;;;;;;;;;;4951801;29;20034;-73
2021/06/11 12:38:41;;;;;;;10.13;7.05;;;;;;;;;;4952051;29;20499;-72
2021/06/11 12:41:10;;;;;;;12.68;8.02;;;;;;;;;;4950629;29;20506;-75
2021/06/11 12:46:22;;;;;;;15.82;11.05;;;;;;;;;;4945969;29;20046;-74
2021/06/11 12:48:49;;;;;;;12.93;8.68;;;;;;;;;;4952245;29;20031;-72
2021/06/11 12:51:15;;;;;;;10.25;7.82;;;;;;;;;;4952076;29;20035;-72
2021/06/11 12:53:41;;;;;;;9.73;7.32;;;;;;;;;;4952187;29;20027;-70
2021/06/11 12:56:07;;;;;;;10.70;7.28;;;;;;;;;;4952508;29;20085;-72
2021/06/11 12:58:33;;;;;;;8.20;6.63;;;;;;;;;;4951992;29;20027;-71
2021/06/11 13:01:00;;;;;;;9.15;6.68;;;;;;;;;;4952378;29;20035;-73
2021/06/11 13:03:26;;;;;;;7.63;6.80;;;;;;;;;;4952245;29;20039;-72
2021/06/11 13:05:52;;;;;;;12.93;8.15;;;;;;;;;;4951733;28;20422;-72
2021/06/11 13:08:19;;;;;;;10.95;6.95;;;;;;;;;;4955215;29;20034;-71
2021/06/11 13:10:45;;;;;;;11.10;6.70;;;;;;;;;;4955230;29;20023;-73
2021/06/11 13:13:11;;;;;;;9.48;6.82;;;;;;;;;;4955788;29;20102;-73
2021/06/11 13:15:37;;;;;;;10.73;6.95;;;;;;;;;;4955294;29;20475;-72
2021/06/11 13:18:04;;;;;;;7.80;7.00;;;;;;;;;;4955035;29;20434;-71
2021/06/11 13:20:30;;;;;;;10.88;6.55;;;;;;;;;;4955647;29;20042;-72
2021/06/11 13:22:56;;;;;;;14.88;7.78;;;;;;;;;;4955460;29;20090;-72
2021/06/11 13:25:22;;;;;;;11.32;7.57;;;;;;;;;;4955238;29;20098;-72
2021/06/11 13:27:49;;;;;;;12.63;6.72;;;;;;;;;;4954773;29;20031;-70
2021/06/11 13:30:15;;;;;;;10.40;5.78;;;;;;;;;;4953628;29;20098;-72
2021/06/11 13:32:42;;;;;;;8.82;6.30;;;;;;;;;;4954902;29;20156;-72
2021/06/11 13:35:08;;;;;;;8.82;5.63;;;;;;;;;;4954885;29;20066;-71
2021/06/11 13:37:34;;;;;;;8.88;5.82;;;;;;;;;;4954878;29;20065;-72
2021/06/11 13:40:00;;;;;;;9.40;5.80;;;;;;;;;;4954128;29;20090;-74
2021/06/11 13:42:26;;;;;;;8.45;6.10;;;;;;;;;;4954798;29;20031;-70
2021/06/11 13:44:52;;;;;;;10.95;6.95;;;;;;;;;;4954695;29;20031;-72
2021/06/11 13:47:18;;;;;;;11.93;6.95;;;;;;;;;;4954452;29;20685;-71
2021/06/11 13:49:44;;;;;;;10.32;7.18;;;;;;;;;;4954174;29;20027;-70
2021/06/11 13:52:11;;;;;;;10.07;6.43;;;;;;;;;;4954365;29;20038;-70
2021/06/11 13:54:37;;;;;;;9.32;6.40;;;;;;;;;;4954617;29;20059;-70
2021/06/11 13:57:03;;;;;;;9.13;6.68;;;;;;;;;;4954643;29;20030;-70
2021/06/11 13:59:29;;;;;;;9.32;7.10;;;;;;;;;;4954748;29;20031;-72
2021/06/11 14:01:56;;;;;;;11.43;7.05;;;;;;;;;;4954442;29;20487;-70
2021/06/11 14:04:23;;;;;;;11.40;6.70;;;;;;;;;;4954055;29;20039;-70
2021/06/11 14:06:49;;;;;;;9.60;6.28;;;;;;;;;;4954501;29;20138;-70
2021/06/11 14:09:15;;;;;;;9.73;6.30;;;;;;;;;;4954351;29;20493;-71
2021/06/11 14:11:41;;;;;;;11.25;7.18;;;;;;;;;;4954512;29;20101;-71
2021/06/11 14:14:08;;;;;;;11.50;7.47;;;;;;;;;;4954946;29;20031;-71
2021/06/11 14:16:35;;;;;;;12.05;6.13;;;;;;;;;;4954487;28;20023;-70
2021/06/11 14:19:02;;;;;;;10.18;6.25;;;;;;;;;;4954167;29;20023;-70
2021/06/11 14:21:29;;;;;;;10.02;7.05;;;;;;;;;;4954120;29;20072;-69
2021/06/11 14:23:55;;;;;;;12.90;7.90;;;;;;;;;;4953518;29;20098;-70
2021/06/11 14:26:21;;;;;;;8.77;6.43;;;;;;;;;;4953685;29;20050;-70
2021/06/11 14:28:47;;;;;;;8.88;5.82;;;;;;;;;;4954577;29;20078;-70
2021/06/11 14:31:13;;;;;;;9.25;6.10;;;;;;;;;;4955081;29;20035;-70
2021/06/11 14:33:40;;;;;;;7.88;5.72;;;;;;;;;;4958337;29;20019;-70
2021/06/11 14:36:06;;;;;;;14.68;6.65;;;;;;;;;;4958924;29;20039;-74
2021/06/11 14:38:33;;;;;;;8.00;5.68;;;;;;;;;;4955657;29;20031;-72
2021/06/11 14:40:59;;;;;;;9.20;5.57;;;;;;;;;;4953453;29;20035;-72
2021/06/11 14:43:25;;;;;;;8.38;5.88;;;;;;;;;;4953600;29;20119;-71
2021/06/11 14:45:51;;;;;;;8.00;5.20;;;;;;;;;;4945804;29;20036;-73
2021/06/11 14:48:19;;;;;;;8.52;5.50;;;;;;;;;;4943409;29;20078;-71
2021/06/11 14:50:45;;;;;;;8.13;5.57;;;;;;;;;;4939906;29;20023;-72
2021/06/11 14:53:15;;;;;;;9.02;6.00;;;;;;;;;;4940394;29;20031;-73
2021/06/11 14:55:44;;;;;;;7.45;5.53;;;;;;;;;;4939443;29;20099;-70
2021/06/11 14:58:10;;;;;;;7.20;5.10;;;;;;;;;;4936088;29;20035;-71
2021/06/11 15:00:38;;;;;;;11.52;6.22;;;;;;;;;;4943169;29;20079;-71
2021/06/11 15:03:05;;;;;;;9.18;5.90;;;;;;;;;;4942650;29;20535;-70
2021/06/11 15:05:31;;;;;;;9.43;6.90;;;;;;;;;;4943634;28;20402;-73
2021/06/11 15:07:57;;;;;;;8.68;6.07;;;;;;;;;;4943045;29;20027;-71
2021/06/11 15:10:23;;;;;;;10.60;5.53;;;;;;;;;;4925560;29;20454;-72
2021/06/11 15:12:49;;;;;;;6.57;5.45;;;;;;;;;;4943823;29;20459;-70
2021/06/11 15:15:16;;;;;;;6.60;4.82;;;;;;;;;;4942870;29;20028;-70
2021/06/11 15:17:42;;;;;;;6.38;5.45;;;;;;;;;;4942679;29;20034;-76
2021/06/11 15:20:08;;;;;;;7.07;4.88;;;;;;;;;;4923713;29;20050;-73
2021/06/11 15:22:35;;;;;;;6.70;4.88;;;;;;;;;;4937538;29;20068;-74
2021/06/11 15:25:01;;;;;;;5.90;4.82;;;;;;;;;;4934959;29;20024;-71
2021/06/11 15:27:29;;;;;;;6.70;4.80;;;;;;;;;;4932374;29;20035;-70
2021/06/11 15:29:55;;;;;;;6.13;4.70;;;;;;;;;;4937234;29;20023;-72
2021/06/11 15:32:21;;;;;;;7.65;5.00;;;;;;;;;;4934695;29;20027;-72
2021/06/11 15:34:47;;;;;;;7.72;5.25;;;;;;;;;;4936956;29;20123;-70
2021/06/11 15:37:13;;;;;;;9.80;5.43;;;;;;;;;;4941861;28;20032;-69
2021/06/11 15:39:41;;;;;;;8.20;5.18;;;;;;;;;;4945392;28;20399;-70
2021/06/11 15:42:07;;;;;;;8.27;4.95;;;;;;;;;;4935645;28;20038;-67
2021/06/11 15:44:33;;;;;;;7.35;4.85;;;;;;;;;;4932963;29;20028;-67
2021/06/11 15:46:59;;;;;;;8.15;5.38;;;;;;;;;;4940237;29;20039;-70
2021/06/11 15:49:25;;;;;;;10.32;5.40;;;;;;;;;;4942476;29;20031;-72
2021/06/11 15:51:52;;;;;;;7.13;5.00;;;;;;;;;;4941102;29;20127;-72
2021/06/11 15:54:18;;;;;;;5.68;4.68;;;;;;;;;;4949532;29;20086;-67
2021/06/11 15:56:44;;;;;;;8.38;5.47;;;;;;;;;;4948153;29;20024;-75
2021/06/11 15:59:11;;;;;;;7.50;5.00;;;;;;;;;;4951625;29;20031;-68
2021/06/11 16:01:37;;;;;;;7.60;5.88;;;;;;;;;;4948536;29;20067;-72
2021/06/11 16:04:04;;;;;;;9.82;5.55;;;;;;;;;;4922408;29;20110;-74
2021/06/11 16:06:30;;;;;;;8.70;6.00;;;;;;;;;;4932562;29;20055;-68
2021/06/11 16:08:56;;;;;;;8.68;6.40;;;;;;;;;;4931355;29;20673;-69
2021/06/11 16:11:23;;;;;;;8.13;6.55;;;;;;;;;;4932765;29;20119;-67
2021/06/11 16:13:49;;;;;;;8.18;5.70;;;;;;;;;;4932924;29;20487;-70
2021/06/11 16:16:15;;;;;;;6.85;5.60;;;;;;;;;;4940078;29;20031;-71
2021/06/11 16:18:41;;;;;;;9.38;5.70;;;;;;;;;;4934895;29;20028;-69
2021/06/11 16:21:07;;;;;;;11.07;5.85;;;;;;;;;;4945262;28;20097;-71
2021/06/11 16:23:33;;;;;;;8.27;5.80;;;;;;;;;;4950584;28;20102;-67
2021/06/11 16:25:59;;;;;;;8.88;6.05;;;;;;;;;;4944196;28;20024;-69
2021/06/11 16:28:25;;;;;;;8.18;5.75;;;;;;;;;;4932811;29;20553;-65
2021/06/11 16:30:52;;;;;;;8.57;6.07;;;;;;;;;;4928736;29;20062;-69
2021/06/11 16:33:18;;;;;;;7.20;5.70;;;;;;;;;;4928582;29;20488;-66
2021/06/11 16:35:47;;;;;;;7.40;6.00;;;;;;;;;;4928188;29;20131;-74
2021/06/11 16:38:16;;;;;;;9.25;5.40;;;;;;;;;;4928242;29;20055;-73
2021/06/11 16:40:44;;;;;;;7.15;5.97;;;;;;;;;;4933103;29;20024;-66
2021/06/11 16:43:10;;;;;;;10.00;5.88;;;;;;;;;;4935777;29;20214;-79
2021/06/11 16:45:37;;;;;;;12.27;5.65;;;;;;;;;;4918791;29;20473;-80
2021/06/11 16:48:04;;;;;;;10.63;6.20;;;;;;;;;;4936404;29;20453;-70
2021/06/11 16:50:30;;;;;;;8.52;5.18;;;;;;;;;;4936173;29;20024;-83
2021/06/11 16:52:56;;;;;;;11.50;5.88;;;;;;;;;;4936953;28;20498;-71
2021/06/11 16:55:22;;;;;;;12.00;5.80;;;;;;;;;;4963492;28;20439;-68
2021/06/11 16:57:49;;;;;;;9.07;5.53;;;;;;;;;;4943993;29;20551;-70
2021/06/11 17:00:15;;;;;;;7.07;4.85;;;;;;;;;;4935901;29;20039;-69
2021/06/11 17:02:42;;;;;;;7.68;5.25;;;;;;;;;;4936156;29;20448;-73
2021/06/11 17:05:08;;;;;;;8.82;5.88;;;;;;;;;;4935704;29;20471;-72
2021/06/11 17:07:35;;;;;;;7.70;5.28;;;;;;;;;;4936760;29;20027;-73
2021/06/11 17:10:01;;;;;;;13.57;5.78;;;;;;;;;;4936002;29;20106;-71
2021/06/11 17:12:28;;;;;;;10.32;5.20;;;;;;;;;;4935997;29;20479;-69
2021/06/11 17:14:54;;;;;;;8.75;5.38;;;;;;;;;;4935716;29;20384;-70
2021/06/11 17:17:20;;;;;;;11.07;5.80;;;;;;;;;;4918804;29;20039;-69
2021/06/11 17:19:46;;;;;;;11.77;5.85;;;;;;;;;;4936036;29;20110;-72
2021/06/11 17:22:12;;;;;;;10.77;5.85;;;;;;;;;;4935536;29;20467;-69
2021/06/11 17:24:38;;;;;;;10.32;5.47;;;;;;;;;;4935525;29;20468;-68
2021/06/11 17:27:05;;;;;;;9.98;5.50;;;;;;;;;;4935756;29;20036;-72
2021/06/11 17:29:33;;;;;;;9.95;5.80;;;;;;;;;;4935929;29;20024;-69
2021/06/11 17:32:10;;;;;;;10.52;6.30;;;;;;;;;;4935984;29;20027;-75
2021/06/11 17:34:37;;;;;;;10.13;6.13;;;;;;;;;;4935655;29;20035;-69
2021/06/11 17:37:04;;;;;;;8.05;6.07;;;;;;;;;;4935963;29;20476;-69
2021/06/11 17:39:30;;;;;;;11.20;6.63;;;;;;;;;;4935317;29;20031;-77
2021/06/11 17:41:57;;;;;;;9.25;6.47;;;;;;;;;;4935559;29;20050;-76
2021/06/11 17:44:24;;;;;;;9.32;6.10;;;;;;;;;;4935585;29;20099;-70
2021/06/11 17:46:53;;;;;;;8.43;6.72;;;;;;;;;;4935493;29;20123;-69
2021/06/11 17:49:21;;;;;;;9.30;6.72;;;;;;;;;;4935361;29;20502;-76
2021/06/11 17:51:47;;;;;;;10.18;6.20;;;;;;;;;;4934811;29;20034;-71
2021/06/11 17:54:13;;;;;;;9.10;6.20;;;;;;;;;;4934937;29;20114;-71
2021/06/11 17:56:46;;;;;;;8.82;6.63;;;;;;;;;;4935205;29;20079;-70
2021/06/11 17:59:12;;;;;;;10.57;7.22;;;;;;;;;;4935246;29;20054;-70
2021/06/11 18:01:38;;;;;;;8.93;6.72;;;;;;;;;;4934258;29;20497;-70
2021/06/11 18:04:04;;;;;;;11.38;6.47;;;;;;;;;;4935211;29;20095;-69
2021/06/11 18:06:31;;;;;;;8.93;6.72;;;;;;;;;;4934677;29;20051;-74
2021/06/11 18:08:57;;;;;;;10.93;6.47;;;;;;;;;;4935108;29;20048;-77
2021/06/11 18:11:24;;;;;;;9.88;7.15;;;;;;;;;;4934900;29;20035;-71
2021/06/11 18:13:52;;;;;;;8.63;6.80;;;;;;;;;;4934859;29;20087;-70
2021/06/11 18:16:23;;;;;;;11.82;6.82;;;;;;;;;;4934600;29;20095;-73
2021/06/11 18:19:05;;;;;;;13.45;7.20;;;;;;;;;;4917462;29;20377;-73
2021/06/11 18:21:38;;;;;;;12.00;6.55;;;;;;;;;;4934752;29;20086;-72
2021/06/11 18:24:08;;;;;;;12.85;6.90;;;;;;;;;;4934820;29;20107;-70
2021/06/11 18:26:35;;;;;;;12.65;7.70;;;;;;;;;;4934793;29;20028;-75
2021/06/11 18:29:03;;;;;;;11.15;6.95;;;;;;;;;;4934249;29;20036;-75
2021/06/11 18:31:29;;;;;;;11.48;7.07;;;;;;;;;;4934182;29;20023;-73
2021/06/11 18:34:03;;;;;;;11.85;7.70;;;;;;;;;;4934237;29;20103;-74
2021/06/11 18:36:30;;;;;;;13.40;7.65;;;;;;;;;;4934381;29;20034;-71
2021/06/11 18:38:57;;;;;;;10.73;6.85;;;;;;;;;;4934635;29;20027;-70
2021/06/11 18:41:37;;;;;;;14.93;7.68;;;;;;;;;;4933863;29;20035;-72
2021/06/11 18:44:17;;;;;;;12.10;6.88;;;;;;;;;;4934402;29;20023;-69
2021/06/11 18:46:43;;;;;;;12.90;7.70;;;;;;;;;;4934767;29;20035;-71
2021/06/11 18:49:10;;;;;;;11.57;7.75;;;;;;;;;;4943991;29;20032;-70
2021/06/11 18:51:37;;;;;;;11.15;6.97;;;;;;;;;;4933652;29;20547;-70
2021/06/11 18:54:08;;;;;;;11.98;7.15;;;;;;;;;;4934183;29;20042;-70
2021/06/11 18:56:40;;;;;;;10.63;7.28;;;;;;;;;;4933855;29;20020;-70
2021/06/11 18:59:14;;;;;;;11.98;7.97;;;;;;;;;;4933579;29;20036;-73
2021/06/11 19:01:40;;;;;;;14.45;7.43;;;;;;;;;;4933009;29;20028;-78
2021/06/11 19:04:06;;;;;;;13.02;7.75;;;;;;;;;;4932811;29;20046;-71
2021/06/11 19:06:34;;;;;;;12.63;8.43;;;;;;;;;;4933536;29;20470;-68
2021/06/11 19:09:13;;;;;;;11.10;7.90;;;;;;;;;;4938527;29;20073;-68
2021/06/11 19:11:40;;;;;;;12.73;7.50;;;;;;;;;;4943211;29;20055;-67
2021/06/11 19:14:06;;;;;;;11.98;8.10;;;;;;;;;;4938449;29;20035;-77
2021/06/11 19:16:32;;;;;;;11.98;7.95;;;;;;;;;;4942177;29;20030;-67
2021/06/11 19:19:00;;;;;;;17.20;8.57;;;;;;;;;;4952406;29;20126;-68
2021/06/11 19:21:26;;;;;;;12.10;7.90;;;;;;;;;;4952855;29;20118;-67
2021/06/11 19:23:52;;;;;;;12.18;8.50;;;;;;;;;;4952855;29;20383;-71
2021/06/11 19:26:18;;;;;;;15.80;10.50;;;;;;;;;;4948308;29;20023;-71
2021/06/11 19:28:45;;;;;;;15.75;8.32;;;;;;;;;;4933100;29;20115;-72
2021/06/11 19:31:11;;;;;;;12.73;8.35;;;;;;;;;;4935429;29;20024;-69
2021/06/11 19:33:41;;;;;;;14.88;9.20;;;;;;;;;;4938206;29;20024;-72
2021/06/11 19:36:08;;;;;;;16.17;8.43;;;;;;;;;;4941802;29;20035;-72
2021/06/11 19:38:36;;;;;;;12.15;8.68;;;;;;;;;;4937406;29;20028;-68
2021/06/11 19:41:04;;;;;;;11.00;7.45;;;;;;;;;;4937855;29;20051;-73
2021/06/11 19:43:33;;;;;;;11.55;8.18;;;;;;;;;;4939078;29;20759;-68